createdAt,value
2022-11-24T00:00:00.774Z,1009.18
2022-11-24T00:16:03.295Z,1009.42
2022-11-24T00:31:00.624Z,1009.45
2022-11-24T00:46:03.004Z,1009.45
2022-11-24T00:59:59.823Z,1009.66
2022-11-24T01:16:02.396Z,1009.55
2022-11-24T01:30:59.782Z,1009.82
2022-11-24T01:46:01.953Z,1010.1
2022-11-24T02:00:03.938Z,1010.3
2022-11-24T02:16:01.437Z,1010.37
2022-11-24T02:31:03.806Z,1010.37
2022-11-24T02:46:01.026Z,1010.47
2022-11-24T03:00:03.045Z,1010.7
2022-11-24T03:16:00.682Z,1010.91
2022-11-24T03:31:02.923Z,1011.01
2022-11-24T03:46:00.305Z,1011.38
2022-11-24T04:00:02.285Z,1011.42
2022-11-24T04:15:59.778Z,1011.52
2022-11-24T04:31:02.203Z,1011.72
2022-11-24T04:46:04.458Z,1011.92
2022-11-24T05:00:01.365Z,1012.06
2022-11-24T05:16:03.892Z,1012.16
2022-11-24T05:31:01.112Z,1012.5
2022-11-24T05:46:03.298Z,1012.43
2022-11-24T06:00:00.331Z,1012.6
2022-11-24T06:16:02.797Z,1012.64
2022-11-24T06:31:00.024Z,1012.8
2022-11-24T06:46:02.403Z,1013.18
2022-11-24T07:00:04.418Z,1013.65
2022-11-24T07:16:01.967Z,1013.89
2022-11-24T07:31:04.147Z,1014.16
2022-11-24T07:46:02.185Z,1014.26
2022-11-24T08:00:03.481Z,1014.5
2022-11-24T08:16:00.832Z,1014.46
2022-11-24T08:31:03.171Z,1014.5
2022-11-24T08:46:00.421Z,1014.6
2022-11-24T09:00:02.618Z,1014.8
2022-11-24T09:15:59.923Z,1014.8
2022-11-24T09:31:02.399Z,1014.9
2022-11-24T09:46:06.892Z,1014.84
2022-11-24T10:00:01.847Z,1014.77
2022-11-24T10:16:04.245Z,1014.9
2022-11-24T10:31:01.633Z,1014.84
2022-11-24T10:46:03.902Z,1014.9
2022-11-24T11:00:00.964Z,1014.9
2022-11-24T11:16:03.374Z,1014.87
2022-11-24T11:31:18.439Z,1014.77
2022-11-24T11:46:03.061Z,1014.7
2022-11-24T12:00:00.089Z,1014.53
2022-11-24T12:16:02.517Z,1014.6
2022-11-24T12:30:59.914Z,1014.57
2022-11-24T12:46:02.272Z,1014.46
2022-11-24T13:00:04.413Z,1014.53
2022-11-24T13:31:04.068Z,1014.67
2022-11-24T13:46:01.468Z,1014.7
2022-11-24T14:00:03.417Z,1014.73
2022-11-24T14:16:00.916Z,1014.73
2022-11-24T14:31:03.269Z,1014.77
2022-11-24T14:46:00.518Z,1014.94
2022-11-24T15:00:02.817Z,1015.04
2022-11-24T15:16:02.938Z,1015.11
2022-11-24T15:31:02.538Z,1015.34
2022-11-24T15:45:59.784Z,1015.48
2022-11-24T16:00:01.983Z,1015.72
2022-11-24T16:16:04.331Z,1015.95
2022-11-24T16:31:01.729Z,1016.16
2022-11-24T16:46:03.777Z,1016.26
2022-11-24T17:00:00.842Z,1016.46
2022-11-24T17:16:03.280Z,1016.5
2022-11-24T17:31:00.525Z,1016.6
2022-11-24T17:46:02.968Z,1017
2022-11-24T18:00:00.182Z,1017.11
2022-11-24T18:16:02.690Z,1017.24
2022-11-24T18:30:59.981Z,1017.48
2022-11-24T18:46:02.202Z,1017.68
2022-11-24T19:00:04.235Z,1017.95
2022-11-24T19:16:01.549Z,1018.05
2022-11-24T19:31:03.963Z,1018.26
2022-11-24T19:46:01.299Z,1018.36
2022-11-24T20:00:03.370Z,1018.53
2022-11-24T20:16:01.075Z,1018.7
2022-11-24T20:31:03.259Z,1018.83
2022-11-24T20:46:00.525Z,1018.83
2022-11-24T21:00:02.745Z,1018.9
2022-11-24T21:16:00.133Z,1019.07
2022-11-24T21:31:02.297Z,1019.24
2022-11-24T21:45:59.634Z,1019.17
2022-11-24T22:00:01.946Z,1019.24
2022-11-24T22:16:04.331Z,1019.41
2022-11-24T22:31:01.514Z,1019.58
2022-11-24T22:46:20.536Z,1019.68
2022-11-24T23:00:00.903Z,1019.71
2022-11-24T23:16:03.299Z,1019.92
2022-11-24T23:31:00.480Z,1019.95
2022-11-24T23:46:02.677Z,1019.95
2022-11-24T23:59:59.710Z,1019.98
